createdAt,value
2017-10-19T00:01:02.197Z,10.90
2017-10-19T00:03:35.393Z,11.03
2017-10-19T00:06:08.319Z,8.93
2017-10-19T00:08:41.228Z,10.63
2017-10-19T00:11:13.655Z,12.60
2017-10-19T00:13:46.553Z,7.70
2017-10-19T00:16:19.257Z,6.70
2017-10-19T00:18:51.867Z,6.20
2017-10-19T00:21:25.500Z,9.00
2017-10-19T00:23:58.521Z,11.10
2017-10-19T00:26:31.033Z,13.37
2017-10-19T00:29:04.502Z,6.27
2017-10-19T00:31:37.886Z,10.13
2017-10-19T00:34:10.297Z,8.90
2017-10-19T00:36:43.032Z,11.23
2017-10-19T00:39:16.441Z,10.13
2017-10-19T00:41:49.188Z,8.37
2017-10-19T00:44:21.663Z,7.63
2017-10-19T00:46:54.402Z,6.77
2017-10-19T00:49:26.831Z,8.17
2017-10-19T00:51:59.334Z,7.23
2017-10-19T00:54:32.723Z,13.57
2017-10-19T00:57:06.103Z,6.20
2017-10-19T00:59:38.603Z,6.53
2017-10-19T01:02:11.191Z,9.87
2017-10-19T01:04:44.615Z,7.17
2017-10-19T01:07:17.320Z,7.80
2017-10-19T01:09:49.980Z,6.10
2017-10-19T01:12:23.698Z,7.30
2017-10-19T01:14:56.573Z,6.40
2017-10-19T01:17:29.168Z,6.83
2017-10-19T01:20:01.901Z,7.20
2017-10-19T01:22:34.611Z,5.33
2017-10-19T01:25:07.114Z,8.23
2017-10-19T01:27:40.695Z,7.87
2017-10-19T01:30:13.574Z,5.37
2017-10-19T01:32:46.410Z,7.70
2017-10-19T01:35:19.112Z,7.63
2017-10-19T01:37:51.849Z,6.70
2017-10-19T01:40:24.341Z,6.80
2017-10-19T01:42:57.182Z,8.43
2017-10-19T01:45:29.857Z,5.73
2017-10-19T01:48:02.597Z,7.73
2017-10-19T01:50:35.049Z,5.07
2017-10-19T01:53:07.675Z,11.37
2017-10-19T01:55:40.274Z,5.23
2017-10-19T01:58:13.617Z,6.10
2017-10-19T02:00:46.896Z,6.83
2017-10-19T02:03:19.721Z,6.73
2017-10-19T02:05:52.341Z,8.80
2017-10-19T02:08:25.238Z,5.10
2017-10-19T02:10:59.328Z,4.87
2017-10-19T02:13:32.055Z,13.77
2017-10-19T02:16:04.619Z,5.70
2017-10-19T02:18:38.052Z,6.63
2017-10-19T02:21:10.581Z,5.33
2017-10-19T02:23:43.338Z,6.57
2017-10-19T02:26:16.062Z,8.20
2017-10-19T02:28:49.492Z,6.47
2017-10-19T02:31:22.507Z,7.53
2017-10-19T02:33:55.266Z,6.70
2017-10-19T02:36:27.974Z,10.60
2017-10-19T02:39:00.867Z,5.03
2017-10-19T02:41:33.421Z,5.13
2017-10-19T02:44:06.327Z,6.50
2017-10-19T02:46:38.936Z,5.53
2017-10-19T02:49:12.559Z,5.90
2017-10-19T02:51:46.409Z,5.90
2017-10-19T02:54:19.999Z,9.10
2017-10-19T02:56:52.827Z,6.00
2017-10-19T02:59:25.543Z,5.77
2017-10-19T03:01:58.833Z,6.57
2017-10-19T03:04:31.619Z,7.57
2017-10-19T03:07:05.040Z,5.30
2017-10-19T03:09:37.648Z,5.77
2017-10-19T03:12:10.071Z,5.80
2017-10-19T03:14:42.558Z,5.10
2017-10-19T03:17:15.948Z,8.97
2017-10-19T03:19:48.526Z,6.80
2017-10-19T03:22:21.087Z,7.83
2017-10-19T03:24:54.260Z,4.90
2017-10-19T03:27:27.169Z,6.33
2017-10-19T03:29:59.711Z,6.83
2017-10-19T03:32:33.124Z,4.47
2017-10-19T03:35:06.623Z,5.70
2017-10-19T03:37:39.574Z,7.70
2017-10-19T03:40:12.424Z,5.30
2017-10-19T03:42:44.945Z,4.80
2017-10-19T03:45:18.466Z,5.60
2017-10-19T03:47:51.404Z,5.57
2017-10-19T03:50:24.437Z,10.93
2017-10-19T03:52:57.737Z,4.40
2017-10-19T03:55:30.601Z,8.20
2017-10-19T03:58:03.017Z,5.50
2017-10-19T04:00:35.604Z,3.93
2017-10-19T04:03:08.299Z,5.10
2017-10-19T04:05:41.055Z,4.40
2017-10-19T04:08:14.430Z,3.70
2017-10-19T04:10:47.319Z,7.37
2017-10-19T04:13:19.818Z,4.47
2017-10-19T04:15:53.154Z,5.70
2017-10-19T04:18:25.837Z,4.50
2017-10-19T04:20:58.449Z,5.13
2017-10-19T04:23:31.885Z,4.70
2017-10-19T04:26:05.255Z,4.23
2017-10-19T04:28:37.693Z,7.50
2017-10-19T04:31:10.429Z,5.17
2017-10-19T04:33:43.839Z,3.10
2017-10-19T04:36:17.096Z,3.00
2017-10-19T04:38:49.861Z,8.10
2017-10-19T04:41:22.395Z,5.40
2017-10-19T04:43:55.044Z,2.90
2017-10-19T04:46:28.637Z,3.80
2017-10-19T04:49:02.225Z,4.60
2017-10-19T04:51:35.446Z,4.23
2017-10-19T04:54:07.977Z,4.07
2017-10-19T04:56:40.843Z,10.00
2017-10-19T04:59:13.321Z,3.83
2017-10-19T05:01:46.050Z,5.10
2017-10-19T05:04:18.861Z,6.20
2017-10-19T05:06:51.713Z,9.97
2017-10-19T05:09:24.737Z,3.80
2017-10-19T05:11:57.459Z,4.00
2017-10-19T05:14:30.033Z,4.00
2017-10-19T05:17:02.608Z,8.27
2017-10-19T05:19:35.495Z,6.07
2017-10-19T05:22:07.985Z,3.70
2017-10-19T05:24:40.618Z,6.77
2017-10-19T05:27:13.021Z,3.73
2017-10-19T05:29:45.523Z,5.53
2017-10-19T05:32:18.820Z,4.13
2017-10-19T05:34:51.280Z,6.20
2017-10-19T05:37:23.863Z,3.30
2017-10-19T05:39:57.987Z,3.53
2017-10-19T05:42:30.772Z,4.27
2017-10-19T05:45:03.313Z,4.23
2017-10-19T05:47:36.703Z,6.03
2017-10-19T05:50:09.445Z,5.67
2017-10-19T05:52:42.166Z,3.50
2017-10-19T05:55:22.276Z,4.23
2017-10-19T05:57:55.720Z,5.70
2017-10-19T06:00:28.977Z,3.43
2017-10-19T06:03:02.721Z,5.10
2017-10-19T06:05:35.458Z,3.10
2017-10-19T06:08:07.994Z,4.77
2017-10-19T06:10:41.508Z,3.80
2017-10-19T06:13:14.631Z,4.33
2017-10-19T06:15:47.337Z,4.07
2017-10-19T06:18:21.034Z,4.27
2017-10-19T06:20:53.980Z,8.20
2017-10-19T06:23:26.582Z,4.97
2017-10-19T06:25:59.202Z,5.70
2017-10-19T06:28:31.845Z,8.83
2017-10-19T06:31:04.702Z,6.77
2017-10-19T06:33:37.920Z,7.47
2017-10-19T06:36:10.686Z,3.13
2017-10-19T06:38:43.249Z,6.93
2017-10-19T06:41:15.729Z,7.60
2017-10-19T06:43:48.279Z,5.27
2017-10-19T06:46:20.637Z,4.17
2017-10-19T06:48:54.064Z,5.00
2017-10-19T06:51:27.350Z,5.93
2017-10-19T06:54:00.588Z,5.50
2017-10-19T06:56:33.128Z,4.13
2017-10-19T06:59:05.662Z,6.23
2017-10-19T07:01:38.330Z,6.00
2017-10-19T07:04:10.965Z,11.43
2017-10-19T07:06:43.626Z,4.33
2017-10-19T07:09:16.415Z,6.27
2017-10-19T07:11:49.055Z,3.20
2017-10-19T07:14:21.662Z,8.43
2017-10-19T07:16:55.284Z,3.37
2017-10-19T07:19:28.405Z,5.90
2017-10-19T07:22:01.534Z,6.67
2017-10-19T07:24:34.352Z,7.80
2017-10-19T07:27:06.926Z,4.70
2017-10-19T07:29:39.633Z,10.87
2017-10-19T07:32:12.884Z,4.33
2017-10-19T07:34:45.686Z,8.57
2017-10-19T07:37:18.313Z,4.00
2017-10-19T07:39:51.100Z,5.60
2017-10-19T07:42:24.462Z,12.13
2017-10-19T07:44:57.139Z,4.47
2017-10-19T07:47:29.720Z,6.90
2017-10-19T07:50:02.983Z,4.53
2017-10-19T07:52:35.497Z,7.80
2017-10-19T07:55:08.486Z,6.67
2017-10-19T07:57:41.366Z,9.47
2017-10-19T08:00:14.439Z,4.77
2017-10-19T08:02:46.974Z,4.23
2017-10-19T08:05:20.203Z,12.17
2017-10-19T08:07:52.889Z,12.90
2017-10-19T08:10:25.404Z,8.67
2017-10-19T08:12:57.812Z,7.27
2017-10-19T08:15:30.281Z,6.30
2017-10-19T08:18:02.837Z,5.07
2017-10-19T08:20:35.397Z,6.63
2017-10-19T08:23:08.045Z,4.50
2017-10-19T08:25:40.790Z,4.70
2017-10-19T08:28:13.342Z,5.10
2017-10-19T08:30:46.597Z,3.57
2017-10-19T08:33:20.263Z,5.93
2017-10-19T08:35:52.928Z,13.97
2017-10-19T08:38:25.452Z,11.00
2017-10-19T08:40:58.816Z,4.00
2017-10-19T08:43:31.478Z,7.07
2017-10-19T08:46:04.348Z,8.67
2017-10-19T08:48:36.860Z,4.23
2017-10-19T08:51:09.400Z,4.37
2017-10-19T08:53:41.835Z,2.93
2017-10-19T08:56:14.525Z,6.40
2017-10-19T08:58:47.039Z,9.47
2017-10-19T09:01:20.021Z,7.23
2017-10-19T09:03:52.504Z,6.43
2017-10-19T09:06:25.635Z,6.30
2017-10-19T09:08:58.618Z,7.63
2017-10-19T09:11:32.502Z,5.33
2017-10-19T09:14:05.474Z,8.73
2017-10-19T09:16:38.579Z,9.03
2017-10-19T09:19:11.422Z,10.20
2017-10-19T09:21:44.190Z,5.70
2017-10-19T09:24:16.805Z,5.83
2017-10-19T09:26:49.323Z,3.83
2017-10-19T09:29:21.864Z,9.33
2017-10-19T09:31:54.340Z,6.93
2017-10-19T09:34:26.994Z,6.33
2017-10-19T09:36:59.685Z,7.23
2017-10-19T09:39:32.167Z,9.53
2017-10-19T09:42:04.837Z,8.53
2017-10-19T09:44:37.264Z,8.10
2017-10-19T09:47:10.510Z,6.10
2017-10-19T09:49:43.218Z,9.47
2017-10-19T09:52:15.979Z,4.37
2017-10-19T09:54:48.406Z,8.97
2017-10-19T09:57:20.981Z,6.70
2017-10-19T09:59:53.498Z,9.13
2017-10-19T10:02:26.109Z,3.17
2017-10-19T10:04:59.357Z,4.80
2017-10-19T10:07:32.136Z,5.67
2017-10-19T10:10:04.626Z,8.80
2017-10-19T10:12:37.641Z,6.93
2017-10-19T10:15:11.511Z,4.83
2017-10-19T10:17:44.641Z,5.93
2017-10-19T10:20:17.719Z,7.67
2017-10-19T10:22:50.760Z,3.77
2017-10-19T10:25:23.533Z,3.43
2017-10-19T10:27:56.232Z,7.27
2017-10-19T10:30:28.805Z,9.50
2017-10-19T10:33:01.353Z,3.30
2017-10-19T10:35:35.477Z,5.87
2017-10-19T10:38:08.293Z,5.33
2017-10-19T10:40:41.447Z,5.57
2017-10-19T10:43:14.238Z,6.13
2017-10-19T10:45:46.801Z,3.27
2017-10-19T10:48:19.394Z,5.93
2017-10-19T10:50:51.948Z,8.33
2017-10-19T10:53:24.577Z,4.13
2017-10-19T10:55:57.221Z,3.60
2017-10-19T10:58:29.847Z,2.37
2017-10-19T11:01:02.306Z,2.40
2017-10-19T11:03:34.767Z,4.70
2017-10-19T11:06:08.263Z,6.30
2017-10-19T11:08:40.881Z,14.87
2017-10-19T11:11:13.299Z,2.40
2017-10-19T11:13:45.942Z,2.97
2017-10-19T11:16:19.109Z,2.80
2017-10-19T11:18:52.759Z,4.40
2017-10-19T11:21:25.459Z,3.83
2017-10-19T11:23:58.753Z,5.20
2017-10-19T11:26:31.162Z,4.00
2017-10-19T11:29:04.972Z,3.27
2017-10-19T11:31:38.358Z,9.83
2017-10-19T11:34:11.180Z,3.93
2017-10-19T11:36:43.924Z,6.93
2017-10-19T11:39:16.515Z,6.53
2017-10-19T11:41:49.130Z,6.50
2017-10-19T11:44:22.504Z,3.83
2017-10-19T11:46:55.774Z,5.77
2017-10-19T11:49:28.516Z,6.07
2017-10-19T11:52:01.840Z,3.60
2017-10-19T11:54:35.598Z,7.23
2017-10-19T11:57:08.550Z,7.13
2017-10-19T11:59:41.875Z,4.77
2017-10-19T12:02:14.716Z,10.43
2017-10-19T12:04:47.185Z,3.77
2017-10-19T12:07:19.885Z,4.17
2017-10-19T12:09:52.599Z,11.20
2017-10-19T12:12:25.192Z,7.37
2017-10-19T12:14:57.841Z,6.90
2017-10-19T12:17:30.463Z,4.13
2017-10-19T12:20:03.194Z,3.30
2017-10-19T12:22:35.838Z,3.87
2017-10-19T12:25:08.367Z,4.00
2017-10-19T12:27:41.029Z,4.40
2017-10-19T12:30:14.043Z,4.23
2017-10-19T12:32:46.453Z,5.97
2017-10-19T12:35:19.826Z,2.20
2017-10-19T12:37:53.244Z,5.27
2017-10-19T12:40:25.678Z,5.13
2017-10-19T12:42:58.747Z,3.60
2017-10-19T12:45:31.770Z,6.17
2017-10-19T12:48:04.632Z,4.03
2017-10-19T12:50:37.148Z,2.80
2017-10-19T12:53:09.677Z,2.93
2017-10-19T12:55:42.343Z,6.80
2017-10-19T12:58:14.806Z,11.10
2017-10-19T13:00:47.426Z,3.07
2017-10-19T13:03:19.938Z,5.00
2017-10-19T13:05:53.123Z,8.43
2017-10-19T13:08:25.800Z,4.00
2017-10-19T13:10:58.575Z,3.60
2017-10-19T13:13:30.979Z,4.40
2017-10-19T13:16:03.674Z,3.63
2017-10-19T13:18:36.187Z,3.83
2017-10-19T13:21:08.823Z,3.70
2017-10-19T13:23:41.575Z,3.73
2017-10-19T13:26:14.054Z,5.50
2017-10-19T13:28:46.634Z,3.40
2017-10-19T13:31:19.372Z,10.43
2017-10-19T13:33:52.555Z,6.07
2017-10-19T13:36:25.404Z,4.40
2017-10-19T13:38:57.913Z,8.10
2017-10-19T13:41:30.430Z,6.00
2017-10-19T13:44:03.062Z,4.90
2017-10-19T13:46:35.899Z,4.40
2017-10-19T13:49:09.953Z,6.47
2017-10-19T13:51:43.286Z,3.93
2017-10-19T13:54:16.165Z,5.50
2017-10-19T13:56:49.015Z,5.70
2017-10-19T13:59:21.968Z,4.70
2017-10-19T14:01:54.695Z,7.83
2017-10-19T14:04:27.343Z,9.33
2017-10-19T14:07:00.697Z,8.30
2017-10-19T14:09:33.363Z,8.10
2017-10-19T14:12:05.851Z,3.93
2017-10-19T14:14:38.292Z,6.47
2017-10-19T14:17:11.059Z,4.30
2017-10-19T14:19:43.522Z,11.70
2017-10-19T14:22:16.263Z,8.53
2017-10-19T14:24:48.819Z,6.00
2017-10-19T14:27:22.223Z,6.57
2017-10-19T14:29:55.064Z,7.70
2017-10-19T14:32:27.575Z,17.27
2017-10-19T14:35:00.088Z,5.13
2017-10-19T14:37:32.829Z,7.03
2017-10-19T14:40:05.425Z,8.30
2017-10-19T14:42:38.068Z,9.83
2017-10-19T14:45:10.561Z,9.33
2017-10-19T14:47:43.084Z,5.83
2017-10-19T14:50:16.397Z,14.67
2017-10-19T14:52:48.846Z,5.93
2017-10-19T14:55:21.634Z,7.80
2017-10-19T14:57:54.441Z,5.43
2017-10-19T15:00:27.083Z,9.20
2017-10-19T15:03:00.028Z,12.20
2017-10-19T15:05:32.919Z,5.77
2017-10-19T15:08:05.783Z,8.60
2017-10-19T15:10:38.800Z,5.83
2017-10-19T15:13:11.282Z,5.87
2017-10-19T15:15:43.961Z,4.20
2017-10-19T15:18:17.185Z,4.67
2017-10-19T15:20:50.025Z,5.67
2017-10-19T15:23:22.540Z,4.33
2017-10-19T15:25:55.124Z,7.47
2017-10-19T15:28:27.726Z,7.97
2017-10-19T15:31:00.266Z,4.33
2017-10-19T15:33:32.826Z,3.67
2017-10-19T15:36:06.166Z,7.57
2017-10-19T15:38:38.999Z,8.00
2017-10-19T15:41:11.464Z,7.30
2017-10-19T15:43:44.759Z,9.27
2017-10-19T15:46:18.445Z,3.80
2017-10-19T15:48:51.236Z,4.37
2017-10-19T15:51:24.599Z,5.33
2017-10-19T15:53:57.361Z,4.83
2017-10-19T15:56:30.102Z,3.90
2017-10-19T15:59:03.539Z,7.93
2017-10-19T16:01:36.068Z,3.70
2017-10-19T16:04:15.770Z,5.63
2017-10-19T16:06:49.018Z,9.90
2017-10-19T16:09:22.144Z,2.53
2017-10-19T16:11:54.987Z,2.97
2017-10-19T16:14:29.160Z,9.17
2017-10-19T16:17:02.405Z,4.30
2017-10-19T16:19:35.184Z,3.40
2017-10-19T16:22:07.962Z,3.83
2017-10-19T16:24:40.739Z,8.47
2017-10-19T16:27:14.764Z,4.20
2017-10-19T16:29:47.555Z,3.20
2017-10-19T16:32:20.129Z,5.40
2017-10-19T16:34:53.438Z,12.97
2017-10-19T16:37:26.123Z,14.60
2017-10-19T16:39:58.727Z,12.83
2017-10-19T16:42:31.983Z,19.57
2017-10-19T16:45:05.564Z,6.33
2017-10-19T16:47:38.488Z,9.17
2017-10-19T16:50:11.112Z,9.20
2017-10-19T16:52:43.629Z,11.30
2017-10-19T16:55:16.169Z,7.57
2017-10-19T16:57:48.765Z,8.57
2017-10-19T17:00:21.494Z,5.10
2017-10-19T17:02:54.149Z,5.07
2017-10-19T17:05:26.761Z,7.33
2017-10-19T17:08:00.215Z,11.07
2017-10-19T17:10:34.027Z,10.13
2017-10-19T17:13:06.628Z,7.47
2017-10-19T17:15:39.333Z,14.10
2017-10-19T17:18:12.556Z,9.80
2017-10-19T17:20:45.948Z,14.60
2017-10-19T17:23:18.526Z,13.70
2017-10-19T17:25:51.048Z,8.43
2017-10-19T17:28:23.910Z,11.70
2017-10-19T17:30:57.374Z,21.40
2017-10-19T17:33:31.398Z,13.40
2017-10-19T17:36:04.298Z,15.20
2017-10-19T17:38:37.280Z,18.60
2017-10-19T17:41:10.679Z,13.80
2017-10-19T17:43:44.951Z,14.33
2017-10-19T17:46:18.770Z,14.57
2017-10-19T17:48:52.198Z,16.83
2017-10-19T17:51:25.766Z,12.43
2017-10-19T17:53:59.659Z,13.60
2017-10-19T17:56:33.097Z,10.20
2017-10-19T17:59:06.712Z,10.33
2017-10-19T18:01:41.370Z,11.27
2017-10-19T18:04:14.675Z,11.43
2017-10-19T18:06:48.440Z,11.27
2017-10-19T18:09:22.495Z,9.17
2017-10-19T18:11:56.471Z,11.63
2017-10-19T18:14:30.539Z,9.47
2017-10-19T18:17:05.741Z,10.03
2017-10-19T18:19:41.139Z,9.83
2017-10-19T18:22:15.250Z,10.10
2017-10-19T18:24:49.610Z,9.47
2017-10-19T18:27:24.641Z,11.67
2017-10-19T18:29:58.885Z,9.40
2017-10-19T18:32:33.095Z,10.17
2017-10-19T18:35:07.341Z,13.97
2017-10-19T18:37:41.851Z,17.83
2017-10-19T18:40:15.883Z,14.80
2017-10-19T18:42:50.251Z,9.40
2017-10-19T18:45:25.158Z,7.70
2017-10-19T18:47:59.612Z,12.20
2017-10-19T18:50:34.156Z,13.17
2017-10-19T18:53:08.485Z,10.33
2017-10-19T18:55:43.699Z,10.37
2017-10-19T18:58:18.697Z,13.77
2017-10-19T19:00:54.115Z,10.33
2017-10-19T19:03:29.794Z,13.87
2017-10-19T19:06:04.459Z,16.60
2017-10-19T19:08:39.843Z,18.43
2017-10-19T19:11:14.778Z,10.60
2017-10-19T19:13:49.764Z,15.07
2017-10-19T19:16:24.264Z,19.63
2017-10-19T19:18:59.841Z,18.10
2017-10-19T19:21:34.850Z,20.63
2017-10-19T19:24:11.151Z,15.10
2017-10-19T19:26:45.779Z,13.17
2017-10-19T19:29:21.547Z,16.03
2017-10-19T19:31:55.775Z,16.57
2017-10-19T19:34:31.402Z,12.50
2017-10-19T19:37:06.493Z,12.57
2017-10-19T19:39:40.981Z,12.70
2017-10-19T19:42:16.354Z,9.40
2017-10-19T19:44:51.468Z,19.60
2017-10-19T19:47:25.796Z,13.30
2017-10-19T19:50:02.168Z,12.40
2017-10-19T19:52:37.005Z,16.93
2017-10-19T19:55:11.912Z,11.80
2017-10-19T19:57:46.417Z,14.30
2017-10-19T20:00:21.281Z,14.23
2017-10-19T20:02:56.503Z,14.77
2017-10-19T20:05:32.308Z,12.10
2017-10-19T20:08:08.001Z,16.73
2017-10-19T20:10:42.889Z,10.23
2017-10-19T20:13:17.671Z,10.00
2017-10-19T20:15:52.842Z,19.80
2017-10-19T20:18:27.678Z,10.73
2017-10-19T20:21:02.434Z,11.43
2017-10-19T20:23:38.021Z,15.40
2017-10-19T20:26:13.744Z,11.57
2017-10-19T20:28:50.195Z,13.63
2017-10-19T20:31:24.379Z,10.40
2017-10-19T20:33:59.158Z,12.33
2017-10-19T20:36:34.941Z,13.47
2017-10-19T20:39:09.587Z,12.00
2017-10-19T20:41:45.071Z,13.40
2017-10-19T20:44:18.931Z,13.23
2017-10-19T20:46:53.558Z,12.20
2017-10-19T20:49:27.899Z,10.63
2017-10-19T20:52:02.061Z,13.67
2017-10-19T20:54:36.952Z,12.30
2017-10-19T20:57:11.681Z,11.30
2017-10-19T20:59:45.589Z,14.73
2017-10-19T21:02:18.476Z,15.40
2017-10-19T21:04:51.826Z,13.50
2017-10-19T21:07:25.077Z,12.47
2017-10-19T21:09:59.307Z,13.13
2017-10-19T21:12:33.800Z,11.30
2017-10-19T21:15:07.103Z,12.70
2017-10-19T21:17:40.122Z,17.10
2017-10-19T21:20:12.771Z,12.27
2017-10-19T21:22:45.503Z,16.57
2017-10-19T21:25:18.188Z,12.17
2017-10-19T21:27:52.063Z,14.63
2017-10-19T21:30:25.230Z,14.07
2017-10-19T21:32:57.619Z,12.03
2017-10-19T21:35:30.492Z,18.53
2017-10-19T21:38:03.082Z,16.67
2017-10-19T21:40:35.810Z,17.40
2017-10-19T21:43:08.508Z,14.40
2017-10-19T21:45:41.695Z,16.13
2017-10-19T21:48:14.917Z,14.93
2017-10-19T21:50:47.698Z,13.27
2017-10-19T21:53:20.483Z,10.70
2017-10-19T21:55:53.017Z,13.03
2017-10-19T21:58:25.810Z,15.10
2017-10-19T22:00:59.086Z,16.47
2017-10-19T22:03:32.859Z,15.07
2017-10-19T22:06:05.560Z,16.13
2017-10-19T22:08:38.334Z,18.13
2017-10-19T22:11:11.041Z,19.10
2017-10-19T22:13:43.654Z,16.87
2017-10-19T22:16:16.377Z,13.90
2017-10-19T22:18:49.244Z,14.07
2017-10-19T22:21:22.479Z,13.10
2017-10-19T22:23:54.946Z,19.53
2017-10-19T22:26:28.373Z,15.90
2017-10-19T22:29:01.161Z,16.00
2017-10-19T22:31:33.641Z,13.17
2017-10-19T22:34:06.974Z,15.20
2017-10-19T22:36:40.711Z,19.43
2017-10-19T22:39:13.861Z,14.80
2017-10-19T22:41:47.162Z,14.90
2017-10-19T22:44:21.369Z,17.07
2017-10-19T22:46:54.432Z,20.73
2017-10-19T22:49:27.886Z,14.57
2017-10-19T22:52:01.821Z,13.70
2017-10-19T22:54:34.773Z,17.43
2017-10-19T22:57:07.264Z,12.30
2017-10-19T22:59:40.031Z,18.93
2017-10-19T23:02:12.957Z,12.33
2017-10-19T23:04:45.619Z,17.23
2017-10-19T23:07:18.371Z,16.40
2017-10-19T23:09:51.499Z,12.73
2017-10-19T23:12:24.880Z,20.90
2017-10-19T23:14:57.501Z,16.10
2017-10-19T23:17:30.192Z,20.30
2017-10-19T23:20:02.701Z,16.87
2017-10-19T23:22:35.179Z,13.63
2017-10-19T23:25:07.777Z,15.93
2017-10-19T23:27:40.526Z,14.63
2017-10-19T23:30:13.198Z,18.43
2017-10-19T23:32:45.998Z,15.73
2017-10-19T23:35:18.654Z,17.50
2017-10-19T23:37:51.143Z,20.00
2017-10-19T23:40:25.038Z,21.37
2017-10-19T23:42:57.774Z,21.10
2017-10-19T23:45:31.008Z,14.90
2017-10-19T23:48:03.802Z,17.23
2017-10-19T23:50:36.199Z,18.47
2017-10-19T23:53:09.472Z,17.10
2017-10-19T23:55:42.346Z,18.47
2017-10-19T23:58:15.066Z,22.37
